sensor_id;sensor_type;location;lat;lon;timestamp;P1;durP1;ratioP1;P2;durP2;ratioP2
1785;SDS011;890;48.158;11.540;2024-03-02T00:02:13;14.00;;;11.10;;
1785;SDS011;890;48.158;11.540;2024-03-02T00:04:44;14.83;;;12.50;;
1785;SDS011;890;48.158;11.540;2024-03-02T00:07:10;13.10;;;10.50;;
1785;SDS011;890;48.158;11.540;2024-03-02T00:09:39;12.17;;;10.57;;
1785;SDS011;890;48.158;11.540;2024-03-02T00:12:05;15.30;;;11.20;;
1785;SDS011;890;48.158;11.540;2024-03-02T00:14:31;12.63;;;10.70;;
1785;SDS011;890;48.158;11.540;2024-03-02T00:16:57;13.30;;;11.00;;
1785;SDS011;890;48.158;11.540;2024-03-02T00:19:23;14.27;;;11.73;;
1785;SDS011;890;48.158;11.540;2024-03-02T00:21:49;13.40;;;11.20;;
1785;SDS011;890;48.158;11.540;2024-03-02T00:24:20;14.97;;;11.20;;
1785;SDS011;890;48.158;11.540;2024-03-02T00:26:49;14.57;;;11.40;;
1785;SDS011;890;48.158;11.540;2024-03-02T00:29:15;13.10;;;11.53;;
1785;SDS011;890;48.158;11.540;2024-03-02T00:31:44;12.20;;;10.23;;
1785;SDS011;890;48.158;11.540;2024-03-02T00:34:09;12.73;;;11.13;;
1785;SDS011;890;48.158;11.540;2024-03-02T00:36:38;12.73;;;11.13;;
1785;SDS011;890;48.158;11.540;2024-03-02T00:39:04;13.83;;;10.93;;
1785;SDS011;890;48.158;11.540;2024-03-02T00:41:32;13.10;;;10.83;;
1785;SDS011;890;48.158;11.540;2024-03-02T00:44:02;15.43;;;11.70;;
1785;SDS011;890;48.158;11.540;2024-03-02T00:46:34;13.63;;;10.73;;
1785;SDS011;890;48.158;11.540;2024-03-02T00:49:04;13.57;;;11.50;;
1785;SDS011;890;48.158;11.540;2024-03-02T00:51:31;12.43;;;10.67;;
1785;SDS011;890;48.158;11.540;2024-03-02T00:53:59;12.40;;;10.70;;
1785;SDS011;890;48.158;11.540;2024-03-02T00:56:28;12.13;;;10.80;;
1785;SDS011;890;48.158;11.540;2024-03-02T00:58:55;13.13;;;10.27;;
1785;SDS011;890;48.158;11.540;2024-03-02T01:01:20;12.73;;;11.43;;
1785;SDS011;890;48.158;11.540;2024-03-02T01:03:46;11.70;;;10.50;;
1785;SDS011;890;48.158;11.540;2024-03-02T01:06:14;11.80;;;10.60;;
1785;SDS011;890;48.158;11.540;2024-03-02T01:08:40;11.20;;;10.10;;
1785;SDS011;890;48.158;11.540;2024-03-02T01:11:06;13.60;;;11.17;;
1785;SDS011;890;48.158;11.540;2024-03-02T01:13:32;15.13;;;11.97;;
1785;SDS011;890;48.158;11.540;2024-03-02T01:15:58;13.50;;;10.47;;
1785;SDS011;890;48.158;11.540;2024-03-02T01:18:24;14.73;;;10.80;;
1785;SDS011;890;48.158;11.540;2024-03-02T01:20:49;11.87;;;9.80;;
1785;SDS011;890;48.158;11.540;2024-03-02T01:23:21;12.20;;;10.87;;
1785;SDS011;890;48.158;11.540;2024-03-02T01:25:47;11.80;;;10.07;;
1785;SDS011;890;48.158;11.540;2024-03-02T01:28:13;12.70;;;10.93;;
1785;SDS011;890;48.158;11.540;2024-03-02T01:30:39;13.90;;;11.37;;
1785;SDS011;890;48.158;11.540;2024-03-02T01:33:05;14.77;;;12.37;;
1785;SDS011;890;48.158;11.540;2024-03-02T01:35:31;14.23;;;12.37;;
1785;SDS011;890;48.158;11.540;2024-03-02T01:37:57;13.97;;;11.27;;
1785;SDS011;890;48.158;11.540;2024-03-02T01:40:23;16.23;;;13.20;;
1785;SDS011;890;48.158;11.540;2024-03-02T01:42:52;14.13;;;12.60;;
1785;SDS011;890;48.158;11.540;2024-03-02T01:45:23;14.63;;;12.47;;
1785;SDS011;890;48.158;11.540;2024-03-02T01:47:49;14.10;;;12.30;;
1785;SDS011;890;48.158;11.540;2024-03-02T01:50:15;14.70;;;12.00;;
1785;SDS011;890;48.158;11.540;2024-03-02T01:52:49;14.60;;;11.50;;
1785;SDS011;890;48.158;11.540;2024-03-02T01:55:14;14.70;;;11.60;;
1785;SDS011;890;48.158;11.540;2024-03-02T01:57:40;13.57;;;11.67;;
1785;SDS011;890;48.158;11.540;2024-03-02T02:00:06;12.27;;;10.97;;
1785;SDS011;890;48.158;11.540;2024-03-02T02:02:32;12.47;;;10.93;;
1785;SDS011;890;48.158;11.540;2024-03-02T02:04:58;13.33;;;10.27;;
1785;SDS011;890;48.158;11.540;2024-03-02T02:07:23;12.10;;;10.40;;
1785;SDS011;890;48.158;11.540;2024-03-02T02:09:49;12.03;;;10.73;;
1785;SDS011;890;48.158;11.540;2024-03-02T02:12:15;12.90;;;11.23;;
1785;SDS011;890;48.158;11.540;2024-03-02T02:14:46;11.27;;;9.80;;
1785;SDS011;890;48.158;11.540;2024-03-02T02:17:14;11.07;;;9.67;;
1785;SDS011;890;48.158;11.540;2024-03-02T02:19:40;10.53;;;9.37;;
1785;SDS011;890;48.158;11.540;2024-03-02T02:22:06;10.90;;;9.80;;
1785;SDS011;890;48.158;11.540;2024-03-02T02:24:32;12.50;;;9.97;;
1785;SDS011;890;48.158;11.540;2024-03-02T02:26:57;9.37;;;8.37;;
1785;SDS011;890;48.158;11.540;2024-03-02T02:29:23;11.17;;;9.80;;
1785;SDS011;890;48.158;11.540;2024-03-02T02:31:48;12.00;;;10.20;;
1785;SDS011;890;48.158;11.540;2024-03-02T02:34:14;11.53;;;9.90;;
1785;SDS011;890;48.158;11.540;2024-03-02T02:36:40;12.47;;;9.70;;
1785;SDS011;890;48.158;11.540;2024-03-02T02:39:07;11.90;;;10.27;;
1785;SDS011;890;48.158;11.540;2024-03-02T02:41:37;12.60;;;10.53;;
1785;SDS011;890;48.158;11.540;2024-03-02T02:44:03;13.47;;;10.97;;
1785;SDS011;890;48.158;11.540;2024-03-02T02:46:28;13.40;;;11.17;;
1785;SDS011;890;48.158;11.540;2024-03-02T02:48:54;13.60;;;11.87;;
1785;SDS011;890;48.158;11.540;2024-03-02T02:51:19;14.33;;;12.13;;
1785;SDS011;890;48.158;11.540;2024-03-02T02:53:45;14.80;;;11.83;;
1785;SDS011;890;48.158;11.540;2024-03-02T02:56:11;15.17;;;12.17;;
1785;SDS011;890;48.158;11.540;2024-03-02T02:58:37;14.47;;;12.10;;
1785;SDS011;890;48.158;11.540;2024-03-02T03:01:03;15.87;;;12.00;;
1785;SDS011;890;48.158;11.540;2024-03-02T03:03:29;16.80;;;12.53;;
1785;SDS011;890;48.158;11.540;2024-03-02T03:05:55;15.40;;;12.20;;
1785;SDS011;890;48.158;11.540;2024-03-02T03:08:20;16.00;;;13.00;;
1785;SDS011;890;48.158;11.540;2024-03-02T03:10:48;14.43;;;12.80;;
1785;SDS011;890;48.158;11.540;2024-03-02T03:13:14;14.70;;;12.27;;
1785;SDS011;890;48.158;11.540;2024-03-02T03:15:40;15.20;;;11.70;;
1785;SDS011;890;48.158;11.540;2024-03-02T03:18:05;14.23;;;11.90;;
1785;SDS011;890;48.158;11.540;2024-03-02T03:20:32;14.67;;;11.77;;
1785;SDS011;890;48.158;11.540;2024-03-02T03:22:58;16.23;;;11.87;;
1785;SDS011;890;48.158;11.540;2024-03-02T03:25:24;14.20;;;11.87;;
1785;SDS011;890;48.158;11.540;2024-03-02T03:27:50;13.30;;;11.83;;
1785;SDS011;890;48.158;11.540;2024-03-02T03:30:19;14.97;;;11.67;;
1785;SDS011;890;48.158;11.540;2024-03-02T03:32:44;15.30;;;11.80;;
1785;SDS011;890;48.158;11.540;2024-03-02T03:35:10;14.10;;;11.60;;
1785;SDS011;890;48.158;11.540;2024-03-02T03:37:37;13.67;;;11.33;;
1785;SDS011;890;48.158;11.540;2024-03-02T03:40:03;15.83;;;12.50;;
1785;SDS011;890;48.158;11.540;2024-03-02T03:42:34;14.87;;;13.27;;
1785;SDS011;890;48.158;11.540;2024-03-02T03:45:01;13.07;;;11.67;;
1785;SDS011;890;48.158;11.540;2024-03-02T03:47:27;13.30;;;11.90;;
1785;SDS011;890;48.158;11.540;2024-03-02T03:49:52;13.60;;;12.20;;
1785;SDS011;890;48.158;11.540;2024-03-02T03:52:18;13.47;;;12.07;;
1785;SDS011;890;48.158;11.540;2024-03-02T03:54:43;13.30;;;12.00;;
1785;SDS011;890;48.158;11.540;2024-03-02T03:57:09;15.17;;;11.73;;
1785;SDS011;890;48.158;11.540;2024-03-02T03:59:35;14.57;;;12.57;;
1785;SDS011;890;48.158;11.540;2024-03-02T04:02:02;12.47;;;11.17;;
1785;SDS011;890;48.158;11.540;2024-03-02T04:04:28;14.77;;;13.17;;
1785;SDS011;890;48.158;11.540;2024-03-02T04:06:54;12.90;;;11.20;;
1785;SDS011;890;48.158;11.540;2024-03-02T04:09:19;14.10;;;12.53;;
1785;SDS011;890;48.158;11.540;2024-03-02T04:11:45;13.87;;;12.43;;
1785;SDS011;890;48.158;11.540;2024-03-02T04:14:11;14.37;;;12.87;;
1785;SDS011;890;48.158;11.540;2024-03-02T04:16:37;13.53;;;12.13;;
1785;SDS011;890;48.158;11.540;2024-03-02T04:19:04;15.03;;;13.00;;
1785;SDS011;890;48.158;11.540;2024-03-02T04:21:29;15.10;;;13.37;;
1785;SDS011;890;48.158;11.540;2024-03-02T04:23:55;17.00;;;13.60;;
1785;SDS011;890;48.158;11.540;2024-03-02T04:26:24;17.30;;;13.80;;
1785;SDS011;890;48.158;11.540;2024-03-02T04:28:53;14.53;;;13.00;;
1785;SDS011;890;48.158;11.540;2024-03-02T04:31:19;14.80;;;12.77;;
1785;SDS011;890;48.158;11.540;2024-03-02T04:33:45;16.30;;;13.57;;
1785;SDS011;890;48.158;11.540;2024-03-02T04:36:10;15.73;;;13.30;;
1785;SDS011;890;48.158;11.540;2024-03-02T04:38:37;16.30;;;13.33;;
1785;SDS011;890;48.158;11.540;2024-03-02T04:41:04;17.30;;;12.80;;
1785;SDS011;890;48.158;11.540;2024-03-02T04:43:33;15.83;;;12.87;;
1785;SDS011;890;48.158;11.540;2024-03-02T04:45:59;14.53;;;13.03;;
1785;SDS011;890;48.158;11.540;2024-03-02T04:48:25;15.90;;;12.47;;
1785;SDS011;890;48.158;11.540;2024-03-02T04:50:51;15.40;;;13.40;;
1785;SDS011;890;48.158;11.540;2024-03-02T04:53:16;15.10;;;13.23;;
1785;SDS011;890;48.158;11.540;2024-03-02T04:55:42;15.23;;;12.70;;
1785;SDS011;890;48.158;11.540;2024-03-02T04:58:08;14.77;;;13.17;;
1785;SDS011;890;48.158;11.540;2024-03-02T05:00:34;17.40;;;13.43;;
1785;SDS011;890;48.158;11.540;2024-03-02T05:03:00;16.63;;;14.80;;
1785;SDS011;890;48.158;11.540;2024-03-02T05:05:26;16.63;;;14.53;;
1785;SDS011;890;48.158;11.540;2024-03-02T05:07:51;17.27;;;13.83;;
1785;SDS011;890;48.158;11.540;2024-03-02T05:10:17;17.40;;;13.80;;
1785;SDS011;890;48.158;11.540;2024-03-02T05:12:43;16.90;;;13.80;;
1785;SDS011;890;48.158;11.540;2024-03-02T05:15:09;15.80;;;14.10;;
1785;SDS011;890;48.158;11.540;2024-03-02T05:17:44;15.10;;;13.50;;
1785;SDS011;890;48.158;11.540;2024-03-02T05:20:10;14.60;;;12.43;;
1785;SDS011;890;48.158;11.540;2024-03-02T05:22:36;15.33;;;12.67;;
1785;SDS011;890;48.158;11.540;2024-03-02T05:25:03;19.80;;;14.40;;
1785;SDS011;890;48.158;11.540;2024-03-02T05:27:29;16.23;;;13.77;;
1785;SDS011;890;48.158;11.540;2024-03-02T05:29:55;17.20;;;14.13;;
1785;SDS011;890;48.158;11.540;2024-03-02T05:32:21;17.03;;;13.57;;
1785;SDS011;890;48.158;11.540;2024-03-02T05:34:46;17.57;;;13.43;;
1785;SDS011;890;48.158;11.540;2024-03-02T05:37:12;15.87;;;12.93;;
1785;SDS011;890;48.158;11.540;2024-03-02T05:39:38;14.97;;;13.27;;
1785;SDS011;890;48.158;11.540;2024-03-02T05:42:03;17.83;;;13.43;;
1785;SDS011;890;48.158;11.540;2024-03-02T05:44:29;19.13;;;14.37;;
1785;SDS011;890;48.158;11.540;2024-03-02T05:46:55;18.63;;;15.73;;
1785;SDS011;890;48.158;11.540;2024-03-02T05:49:21;17.50;;;14.37;;
1785;SDS011;890;48.158;11.540;2024-03-02T05:51:46;15.57;;;13.90;;
1785;SDS011;890;48.158;11.540;2024-03-02T05:54:12;19.03;;;14.60;;
1785;SDS011;890;48.158;11.540;2024-03-02T05:56:38;16.90;;;13.80;;
1785;SDS011;890;48.158;11.540;2024-03-02T05:59:03;17.53;;;15.17;;
1785;SDS011;890;48.158;11.540;2024-03-02T06:01:47;18.77;;;14.60;;
1785;SDS011;890;48.158;11.540;2024-03-02T06:04:16;16.43;;;13.47;;
1785;SDS011;890;48.158;11.540;2024-03-02T06:06:42;18.17;;;15.27;;
1785;SDS011;890;48.158;11.540;2024-03-02T06:09:08;19.13;;;15.77;;
1785;SDS011;890;48.158;11.540;2024-03-02T06:11:38;19.90;;;16.20;;
1785;SDS011;890;48.158;11.540;2024-03-02T06:14:04;19.83;;;15.67;;
1785;SDS011;890;48.158;11.540;2024-03-02T06:16:31;20.07;;;16.60;;
1785;SDS011;890;48.158;11.540;2024-03-02T06:18:57;18.70;;;15.63;;
1785;SDS011;890;48.158;11.540;2024-03-02T06:21:26;19.00;;;16.77;;
1785;SDS011;890;48.158;11.540;2024-03-02T06:23:52;22.60;;;17.60;;
1785;SDS011;890;48.158;11.540;2024-03-02T06:26:18;20.60;;;16.37;;
1785;SDS011;890;48.158;11.540;2024-03-02T06:28:44;21.50;;;16.80;;
1785;SDS011;890;48.158;11.540;2024-03-02T06:31:10;20.50;;;16.70;;
1785;SDS011;890;48.158;11.540;2024-03-02T06:33:36;20.60;;;17.00;;
1785;SDS011;890;48.158;11.540;2024-03-02T06:36:02;21.20;;;16.60;;
1785;SDS011;890;48.158;11.540;2024-03-02T06:38:28;19.20;;;16.27;;
1785;SDS011;890;48.158;11.540;2024-03-02T06:40:53;20.20;;;17.40;;
1785;SDS011;890;48.158;11.540;2024-03-02T06:43:20;18.10;;;15.83;;
1785;SDS011;890;48.158;11.540;2024-03-02T06:45:49;22.00;;;17.57;;
1785;SDS011;890;48.158;11.540;2024-03-02T06:48:15;19.73;;;16.60;;
1785;SDS011;890;48.158;11.540;2024-03-02T06:50:45;21.00;;;17.30;;
1785;SDS011;890;48.158;11.540;2024-03-02T06:53:14;18.37;;;15.60;;
1785;SDS011;890;48.158;11.540;2024-03-02T06:55:42;24.30;;;18.00;;
1785;SDS011;890;48.158;11.540;2024-03-02T06:58:11;20.80;;;17.03;;
1785;SDS011;890;48.158;11.540;2024-03-02T07:00:38;21.23;;;17.10;;
1785;SDS011;890;48.158;11.540;2024-03-02T07:03:03;22.90;;;17.00;;
1785;SDS011;890;48.158;11.540;2024-03-02T07:05:29;21.13;;;16.97;;
1785;SDS011;890;48.158;11.540;2024-03-02T07:07:55;20.80;;;17.07;;
1785;SDS011;890;48.158;11.540;2024-03-02T07:10:20;21.70;;;16.63;;
1785;SDS011;890;48.158;11.540;2024-03-02T07:12:46;20.03;;;16.33;;
1785;SDS011;890;48.158;11.540;2024-03-02T07:15:12;22.20;;;15.07;;
1785;SDS011;890;48.158;11.540;2024-03-02T07:17:54;19.70;;;15.20;;
1785;SDS011;890;48.158;11.540;2024-03-02T07:20:20;19.60;;;16.10;;
1785;SDS011;890;48.158;11.540;2024-03-02T07:22:46;19.00;;;16.20;;
1785;SDS011;890;48.158;11.540;2024-03-02T07:25:11;21.10;;;16.30;;
1785;SDS011;890;48.158;11.540;2024-03-02T07:27:38;21.30;;;16.30;;
1785;SDS011;890;48.158;11.540;2024-03-02T07:30:04;18.87;;;15.30;;
1785;SDS011;890;48.158;11.540;2024-03-02T07:32:30;19.00;;;15.87;;
1785;SDS011;890;48.158;11.540;2024-03-02T07:34:56;19.10;;;16.40;;
1785;SDS011;890;48.158;11.540;2024-03-02T07:37:22;18.50;;;14.80;;
1785;SDS011;890;48.158;11.540;2024-03-02T07:39:48;20.10;;;16.20;;
1785;SDS011;890;48.158;11.540;2024-03-02T07:42:14;21.13;;;16.43;;
1785;SDS011;890;48.158;11.540;2024-03-02T07:44:40;17.43;;;14.87;;
1785;SDS011;890;48.158;11.540;2024-03-02T07:47:06;17.63;;;15.30;;
1785;SDS011;890;48.158;11.540;2024-03-02T07:49:32;19.20;;;15.50;;
1785;SDS011;890;48.158;11.540;2024-03-02T07:51:57;20.00;;;15.80;;
1785;SDS011;890;48.158;11.540;2024-03-02T07:54:23;20.87;;;15.03;;
1785;SDS011;890;48.158;11.540;2024-03-02T07:56:49;21.57;;;15.17;;
1785;SDS011;890;48.158;11.540;2024-03-02T07:59:15;20.07;;;15.50;;
1785;SDS011;890;48.158;11.540;2024-03-02T08:01:40;20.53;;;15.60;;
1785;SDS011;890;48.158;11.540;2024-03-02T08:04:06;22.37;;;16.17;;
1785;SDS011;890;48.158;11.540;2024-03-02T08:06:32;19.00;;;14.93;;
1785;SDS011;890;48.158;11.540;2024-03-02T08:08:59;19.60;;;15.00;;
1785;SDS011;890;48.158;11.540;2024-03-02T08:11:26;20.57;;;14.63;;
1785;SDS011;890;48.158;11.540;2024-03-02T08:13:56;18.73;;;13.87;;
1785;SDS011;890;48.158;11.540;2024-03-02T08:16:22;19.63;;;15.57;;
1785;SDS011;890;48.158;11.540;2024-03-02T08:18:48;21.23;;;15.47;;
1785;SDS011;890;48.158;11.540;2024-03-02T08:21:14;18.27;;;14.80;;
1785;SDS011;890;48.158;11.540;2024-03-02T08:23:40;16.77;;;13.57;;
1785;SDS011;890;48.158;11.540;2024-03-02T08:26:07;16.77;;;14.00;;
1785;SDS011;890;48.158;11.540;2024-03-02T08:28:33;16.33;;;13.63;;
1785;SDS011;890;48.158;11.540;2024-03-02T08:30:59;20.90;;;14.70;;
1785;SDS011;890;48.158;11.540;2024-03-02T08:33:25;14.93;;;12.03;;
1785;SDS011;890;48.158;11.540;2024-03-02T08:35:50;16.70;;;12.37;;
1785;SDS011;890;48.158;11.540;2024-03-02T08:38:16;16.57;;;11.80;;
1785;SDS011;890;48.158;11.540;2024-03-02T08:40:42;13.33;;;11.17;;
1785;SDS011;890;48.158;11.540;2024-03-02T08:43:09;12.60;;;10.40;;
1785;SDS011;890;48.158;11.540;2024-03-02T08:45:35;13.30;;;9.90;;
1785;SDS011;890;48.158;11.540;2024-03-02T08:48:01;12.60;;;10.90;;
1785;SDS011;890;48.158;11.540;2024-03-02T08:50:26;12.80;;;10.00;;
1785;SDS011;890;48.158;11.540;2024-03-02T08:52:52;12.93;;;10.27;;
1785;SDS011;890;48.158;11.540;2024-03-02T08:55:18;12.97;;;9.27;;
1785;SDS011;890;48.158;11.540;2024-03-02T08:57:43;14.60;;;9.87;;
1785;SDS011;890;48.158;11.540;2024-03-02T09:00:09;10.60;;;8.90;;
1785;SDS011;890;48.158;11.540;2024-03-02T09:02:35;11.20;;;8.20;;
1785;SDS011;890;48.158;11.540;2024-03-02T09:05:01;11.80;;;7.50;;
1785;SDS011;890;48.158;11.540;2024-03-02T09:07:27;7.63;;;6.30;;
1785;SDS011;890;48.158;11.540;2024-03-02T09:09:52;9.43;;;7.67;;
1785;SDS011;890;48.158;11.540;2024-03-02T09:12:18;9.07;;;7.30;;
1785;SDS011;890;48.158;11.540;2024-03-02T09:14:44;9.17;;;7.10;;
1785;SDS011;890;48.158;11.540;2024-03-02T09:17:11;10.30;;;7.80;;
1785;SDS011;890;48.158;11.540;2024-03-02T09:19:37;15.03;;;7.60;;
1785;SDS011;890;48.158;11.540;2024-03-02T09:22:04;9.93;;;7.27;;
1785;SDS011;890;48.158;11.540;2024-03-02T09:24:30;9.97;;;7.70;;
1785;SDS011;890;48.158;11.540;2024-03-02T09:26:56;11.10;;;9.40;;
1785;SDS011;890;48.158;11.540;2024-03-02T09:29:22;12.23;;;10.07;;
1785;SDS011;890;48.158;11.540;2024-03-02T09:31:47;12.47;;;10.00;;
1785;SDS011;890;48.158;11.540;2024-03-02T09:34:14;10.10;;;8.90;;
1785;SDS011;890;48.158;11.540;2024-03-02T09:36:40;9.97;;;8.80;;
1785;SDS011;890;48.158;11.540;2024-03-02T09:39:09;12.27;;;8.73;;
1785;SDS011;890;48.158;11.540;2024-03-02T09:41:36;11.83;;;8.10;;
1785;SDS011;890;48.158;11.540;2024-03-02T09:44:02;10.50;;;8.77;;
1785;SDS011;890;48.158;11.540;2024-03-02T09:46:28;7.43;;;5.60;;
1785;SDS011;890;48.158;11.540;2024-03-02T09:48:54;8.07;;;5.70;;
1785;SDS011;890;48.158;11.540;2024-03-02T09:51:19;7.43;;;5.93;;
1785;SDS011;890;48.158;11.540;2024-03-02T09:53:45;8.50;;;7.13;;
1785;SDS011;890;48.158;11.540;2024-03-02T09:56:12;10.73;;;9.03;;
1785;SDS011;890;48.158;11.540;2024-03-02T09:58:38;9.63;;;7.87;;
1785;SDS011;890;48.158;11.540;2024-03-02T10:01:07;5.53;;;5.00;;
1785;SDS011;890;48.158;11.540;2024-03-02T10:03:35;8.90;;;5.33;;
1785;SDS011;890;48.158;11.540;2024-03-02T10:08:50;7.90;;;6.47;;
1785;SDS011;890;48.158;11.540;2024-03-02T10:11:34;9.67;;;6.83;;
1785;SDS011;890;48.158;11.540;2024-03-02T10:14:12;7.53;;;6.00;;
1785;SDS011;890;48.158;11.540;2024-03-02T10:16:42;9.27;;;6.27;;
1785;SDS011;890;48.158;11.540;2024-03-02T10:21:40;7.10;;;5.80;;
1785;SDS011;890;48.158;11.540;2024-03-02T10:24:07;8.00;;;6.30;;
1785;SDS011;890;48.158;11.540;2024-03-02T10:26:33;8.60;;;7.37;;
1785;SDS011;890;48.158;11.540;2024-03-02T10:28:58;8.80;;;7.57;;
1785;SDS011;890;48.158;11.540;2024-03-02T10:31:24;8.17;;;7.20;;
1785;SDS011;890;48.158;11.540;2024-03-02T10:33:54;9.93;;;6.93;;
1785;SDS011;890;48.158;11.540;2024-03-02T10:36:20;6.57;;;5.57;;
1785;SDS011;890;48.158;11.540;2024-03-02T10:38:46;5.63;;;4.30;;
1785;SDS011;890;48.158;11.540;2024-03-02T10:41:16;7.00;;;5.10;;
1785;SDS011;890;48.158;11.540;2024-03-02T10:43:43;7.20;;;5.30;;
1785;SDS011;890;48.158;11.540;2024-03-02T10:46:10;7.33;;;6.30;;
1785;SDS011;890;48.158;11.540;2024-03-02T10:48:39;7.70;;;6.00;;
1785;SDS011;890;48.158;11.540;2024-03-02T10:51:06;8.00;;;6.33;;
1785;SDS011;890;48.158;11.540;2024-03-02T10:53:32;7.50;;;6.70;;
1785;SDS011;890;48.158;11.540;2024-03-02T10:55:58;7.70;;;6.00;;
1785;SDS011;890;48.158;11.540;2024-03-02T10:58:31;9.63;;;7.40;;
1785;SDS011;890;48.158;11.540;2024-03-02T11:01:01;9.50;;;7.00;;
1785;SDS011;890;48.158;11.540;2024-03-02T11:03:29;9.07;;;6.97;;
1785;SDS011;890;48.158;11.540;2024-03-02T11:05:58;11.17;;;6.20;;
1785;SDS011;890;48.158;11.540;2024-03-02T11:08:25;7.07;;;5.90;;
1785;SDS011;890;48.158;11.540;2024-03-02T11:11:00;8.70;;;7.13;;
1785;SDS011;890;48.158;11.540;2024-03-02T11:13:31;13.30;;;7.67;;
1785;SDS011;890;48.158;11.540;2024-03-02T11:16:04;10.40;;;7.57;;
1785;SDS011;890;48.158;11.540;2024-03-02T11:18:35;11.90;;;9.13;;
1785;SDS011;890;48.158;11.540;2024-03-02T11:21:02;13.60;;;8.70;;
1785;SDS011;890;48.158;11.540;2024-03-02T11:23:32;10.57;;;8.70;;
1785;SDS011;890;48.158;11.540;2024-03-02T11:26:20;9.77;;;7.80;;
1785;SDS011;890;48.158;11.540;2024-03-02T11:28:47;11.97;;;9.50;;
1785;SDS011;890;48.158;11.540;2024-03-02T11:31:13;10.63;;;9.07;;
1785;SDS011;890;48.158;11.540;2024-03-02T11:33:38;11.70;;;9.37;;
1785;SDS011;890;48.158;11.540;2024-03-02T11:36:06;14.60;;;10.00;;
1785;SDS011;890;48.158;11.540;2024-03-02T11:38:33;11.60;;;10.17;;
1785;SDS011;890;48.158;11.540;2024-03-02T11:41:00;13.37;;;9.03;;
1785;SDS011;890;48.158;11.540;2024-03-02T11:43:27;11.57;;;8.77;;
1785;SDS011;890;48.158;11.540;2024-03-02T11:46:00;10.50;;;8.67;;
1785;SDS011;890;48.158;11.540;2024-03-02T11:48:29;10.03;;;9.00;;
1785;SDS011;890;48.158;11.540;2024-03-02T11:50:57;13.93;;;10.93;;
1785;SDS011;890;48.158;11.540;2024-03-02T11:53:24;10.70;;;8.80;;
1785;SDS011;890;48.158;11.540;2024-03-02T11:55:52;11.47;;;8.17;;
1785;SDS011;890;48.158;11.540;2024-03-02T11:58:23;10.83;;;8.43;;
1785;SDS011;890;48.158;11.540;2024-03-02T12:00:51;11.67;;;9.50;;
1785;SDS011;890;48.158;11.540;2024-03-02T12:03:22;12.50;;;8.50;;
1785;SDS011;890;48.158;11.540;2024-03-02T12:05:49;13.27;;;10.77;;
1785;SDS011;890;48.158;11.540;2024-03-02T12:08:15;12.33;;;10.10;;
1785;SDS011;890;48.158;11.540;2024-03-02T12:10:42;12.40;;;10.27;;
1785;SDS011;890;48.158;11.540;2024-03-02T12:13:09;10.57;;;9.10;;
1785;SDS011;890;48.158;11.540;2024-03-02T12:15:37;13.20;;;10.20;;
1785;SDS011;890;48.158;11.540;2024-03-02T12:18:04;13.90;;;10.43;;
1785;SDS011;890;48.158;11.540;2024-03-02T12:20:31;15.37;;;11.27;;
1785;SDS011;890;48.158;11.540;2024-03-02T12:22:58;13.70;;;11.50;;
1785;SDS011;890;48.158;11.540;2024-03-02T12:25:25;13.63;;;10.57;;
1785;SDS011;890;48.158;11.540;2024-03-02T12:27:56;15.63;;;12.30;;
1785;SDS011;890;48.158;11.540;2024-03-02T12:30:24;14.33;;;11.60;;
1785;SDS011;890;48.158;11.540;2024-03-02T12:32:52;15.07;;;12.53;;
1785;SDS011;890;48.158;11.540;2024-03-02T12:35:18;14.07;;;12.57;;
1785;SDS011;890;48.158;11.540;2024-03-02T12:37:44;14.93;;;12.80;;
1785;SDS011;890;48.158;11.540;2024-03-02T12:40:11;16.83;;;12.60;;
1785;SDS011;890;48.158;11.540;2024-03-02T12:42:38;14.20;;;12.40;;
1785;SDS011;890;48.158;11.540;2024-03-02T12:45:05;17.73;;;12.90;;
1785;SDS011;890;48.158;11.540;2024-03-02T12:47:31;18.20;;;12.53;;
1785;SDS011;890;48.158;11.540;2024-03-02T12:49:58;15.00;;;11.63;;
1785;SDS011;890;48.158;11.540;2024-03-02T12:52:24;17.07;;;12.60;;
1785;SDS011;890;48.158;11.540;2024-03-02T12:54:50;18.10;;;12.60;;
1785;SDS011;890;48.158;11.540;2024-03-02T12:57:18;17.80;;;12.57;;
1785;SDS011;890;48.158;11.540;2024-03-02T12:59:47;18.83;;;12.90;;
1785;SDS011;890;48.158;11.540;2024-03-02T13:02:19;16.80;;;12.60;;
1785;SDS011;890;48.158;11.540;2024-03-02T13:04:52;15.90;;;13.47;;
1785;SDS011;890;48.158;11.540;2024-03-02T13:07:19;17.20;;;13.50;;
1785;SDS011;890;48.158;11.540;2024-03-02T13:09:47;17.70;;;13.30;;
1785;SDS011;890;48.158;11.540;2024-03-02T13:12:17;16.40;;;12.07;;
1785;SDS011;890;48.158;11.540;2024-03-02T13:14:44;15.20;;;12.00;;
1785;SDS011;890;48.158;11.540;2024-03-02T13:17:12;17.70;;;12.77;;
1785;SDS011;890;48.158;11.540;2024-03-02T13:19:43;17.63;;;12.97;;
1785;SDS011;890;48.158;11.540;2024-03-02T13:22:16;17.80;;;13.07;;
1785;SDS011;890;48.158;11.540;2024-03-02T13:24:42;19.10;;;13.27;;
1785;SDS011;890;48.158;11.540;2024-03-02T13:27:08;15.50;;;12.30;;
1785;SDS011;890;48.158;11.540;2024-03-02T13:29:34;16.93;;;12.20;;
1785;SDS011;890;48.158;11.540;2024-03-02T13:32:00;15.77;;;12.30;;
1785;SDS011;890;48.158;11.540;2024-03-02T13:34:25;17.73;;;12.40;;
1785;SDS011;890;48.158;11.540;2024-03-02T13:36:51;16.77;;;11.87;;
1785;SDS011;890;48.158;11.540;2024-03-02T13:39:16;18.80;;;12.83;;
1785;SDS011;890;48.158;11.540;2024-03-02T13:41:43;16.23;;;12.60;;
1785;SDS011;890;48.158;11.540;2024-03-02T13:44:17;17.83;;;13.27;;
1785;SDS011;890;48.158;11.540;2024-03-02T13:46:43;17.70;;;11.80;;
1785;SDS011;890;48.158;11.540;2024-03-02T13:49:10;18.10;;;12.50;;
1785;SDS011;890;48.158;11.540;2024-03-02T13:51:36;17.23;;;12.20;;
1785;SDS011;890;48.158;11.540;2024-03-02T13:54:02;20.63;;;13.30;;
1785;SDS011;890;48.158;11.540;2024-03-02T13:56:28;17.03;;;12.43;;
1785;SDS011;890;48.158;11.540;2024-03-02T13:58:54;19.30;;;13.67;;
1785;SDS011;890;48.158;11.540;2024-03-02T14:01:20;23.67;;;14.00;;
1785;SDS011;890;48.158;11.540;2024-03-02T14:03:46;21.50;;;14.20;;
1785;SDS011;890;48.158;11.540;2024-03-02T14:06:12;19.60;;;13.43;;
1785;SDS011;890;48.158;11.540;2024-03-02T14:08:38;21.60;;;12.87;;
1785;SDS011;890;48.158;11.540;2024-03-02T14:11:04;21.40;;;12.80;;
1785;SDS011;890;48.158;11.540;2024-03-02T14:13:30;18.90;;;12.20;;
1785;SDS011;890;48.158;11.540;2024-03-02T14:15:55;19.17;;;11.00;;
1785;SDS011;890;48.158;11.540;2024-03-02T14:18:23;17.30;;;12.00;;
1785;SDS011;890;48.158;11.540;2024-03-02T14:20:48;16.73;;;10.03;;
1785;SDS011;890;48.158;11.540;2024-03-02T14:23:17;14.20;;;9.40;;
1785;SDS011;890;48.158;11.540;2024-03-02T14:25:44;14.23;;;9.50;;
1785;SDS011;890;48.158;11.540;2024-03-02T14:28:10;14.87;;;10.13;;
1785;SDS011;890;48.158;11.540;2024-03-02T14:30:37;15.57;;;9.70;;
1785;SDS011;890;48.158;11.540;2024-03-02T14:33:02;18.10;;;10.77;;
1785;SDS011;890;48.158;11.540;2024-03-02T14:35:28;14.30;;;10.07;;
1785;SDS011;890;48.158;11.540;2024-03-02T14:37:54;15.27;;;9.70;;
1785;SDS011;890;48.158;11.540;2024-03-02T14:40:22;15.33;;;9.10;;
1785;SDS011;890;48.158;11.540;2024-03-02T14:42:51;14.00;;;9.60;;
1785;SDS011;890;48.158;11.540;2024-03-02T14:45:17;14.77;;;10.07;;
1785;SDS011;890;48.158;11.540;2024-03-02T14:47:43;16.57;;;9.97;;
1785;SDS011;890;48.158;11.540;2024-03-02T14:50:09;15.67;;;10.27;;
1785;SDS011;890;48.158;11.540;2024-03-02T14:52:35;14.70;;;10.47;;
1785;SDS011;890;48.158;11.540;2024-03-02T14:55:01;15.83;;;10.50;;
1785;SDS011;890;48.158;11.540;2024-03-02T14:57:29;14.80;;;10.10;;